createdAt,value
2019-04-30T00:00:01.031Z,43.10
2019-04-30T00:02:35.903Z,45.50
2019-04-30T00:05:01.490Z,45.97
2019-04-30T00:07:30.033Z,44.63
2019-04-30T00:09:58.587Z,42.07
2019-04-30T00:12:31.003Z,40.98
2019-04-30T00:14:57.575Z,40.67
2019-04-30T00:17:26.139Z,44.20
2019-04-30T00:19:58.861Z,41.35
2019-04-30T00:22:33.064Z,42.60
2019-04-30T00:24:55.676Z,45.77
2019-04-30T00:27:28.303Z,44.83
2019-04-30T00:29:55.821Z,42.43
2019-04-30T00:32:25.836Z,42.80
2019-04-30T00:34:55.596Z,45.58
2019-04-30T00:37:25.424Z,45.00
2019-04-30T00:39:55.532Z,43.08
2019-04-30T00:42:28.431Z,42.35
2019-04-30T00:44:55.342Z,46.80
2019-04-30T00:47:25.678Z,46.30
2019-04-30T00:49:57.536Z,42.73
2019-04-30T00:52:25.316Z,43.57
2019-04-30T00:54:55.261Z,44.93
2019-04-30T00:57:26.325Z,43.60
2019-04-30T00:59:54.913Z,43.60
2019-04-30T01:02:40.139Z,44.65
2019-04-30T01:05:10.379Z,46.50
2019-04-30T01:07:39.633Z,49.30
2019-04-30T01:10:11.073Z,48.05
2019-04-30T01:12:46.940Z,50.67
2019-04-30T01:15:11.149Z,49.63
2019-04-30T01:17:40.819Z,52.33
2019-04-30T01:20:10.983Z,47.62
2019-04-30T01:22:39.615Z,53.47
2019-04-30T01:25:13.289Z,50.85
2019-04-30T01:27:45.273Z,52.90
2019-04-30T01:30:13.469Z,52.45
2019-04-30T01:32:40.048Z,54.43
2019-04-30T01:35:08.938Z,52.70
2019-04-30T01:37:38.716Z,54.33
2019-04-30T01:40:13.620Z,58.20
2019-04-30T01:42:43.108Z,51.77
2019-04-30T01:45:08.743Z,54.27
2019-04-30T01:47:37.275Z,51.93
2019-04-30T01:50:06.779Z,49.97
2019-04-30T01:52:52.930Z,50.73
2019-04-30T01:55:24.256Z,52.03
2019-04-30T01:57:59.078Z,52.60
2019-04-30T02:00:32.288Z,51.68
2019-04-30T02:03:00.752Z,50.70
2019-04-30T02:05:29.340Z,51.23
2019-04-30T02:07:58.540Z,52.47
2019-04-30T02:10:28.546Z,49.35
2019-04-30T02:12:58.957Z,47.15
2019-04-30T02:15:29.217Z,48.87
2019-04-30T02:17:58.708Z,48.05
2019-04-30T02:20:28.751Z,48.17
2019-04-30T02:22:58.639Z,44.17
2019-04-30T02:25:29.364Z,44.87
2019-04-30T02:27:59.018Z,45.70
2019-04-30T02:30:30.517Z,44.95
2019-04-30T02:33:00.487Z,44.47
2019-04-30T02:35:29.926Z,42.35
2019-04-30T02:38:12.244Z,41.10
2019-04-30T02:40:42.597Z,41.37
2019-04-30T02:43:12.262Z,40.43
2019-04-30T02:45:42.097Z,43.73
2019-04-30T02:48:11.727Z,44.23
2019-04-30T02:50:42.652Z,39.93
2019-04-30T02:53:47.121Z,41.28
2019-04-30T02:56:15.668Z,40.07
2019-04-30T02:58:44.156Z,40.92
2019-04-30T03:01:12.625Z,40.43
2019-04-30T03:03:42.637Z,36.00
2019-04-30T03:06:11.658Z,35.67
2019-04-30T03:08:40.506Z,38.00
2019-04-30T03:11:09.765Z,33.20
2019-04-30T03:13:42.543Z,34.17
2019-04-30T03:16:10.272Z,32.20
2019-04-30T03:18:52.536Z,28.62
2019-04-30T03:21:40.496Z,30.72
2019-04-30T03:24:10.731Z,27.45
2019-04-30T03:26:40.691Z,29.02
2019-04-30T03:29:11.420Z,29.55
2019-04-30T03:31:44.084Z,26.02
2019-04-30T03:34:12.493Z,24.60
2019-04-30T03:36:40.608Z,24.17
2019-04-30T03:39:10.760Z,21.20
2019-04-30T03:41:41.385Z,22.57
2019-04-30T03:44:20.929Z,24.10
2019-04-30T03:46:40.562Z,24.17
2019-04-30T03:49:10.612Z,26.75
2019-04-30T03:51:40.316Z,25.23
2019-04-30T03:54:10.305Z,24.82
2019-04-30T03:56:39.745Z,24.50
2019-04-30T03:59:10.481Z,24.53
2019-04-30T04:01:40.717Z,24.33
2019-04-30T04:04:27.195Z,23.95
2019-04-30T04:07:03.033Z,22.60
2019-04-30T04:09:49.876Z,23.43
2019-04-30T04:12:20.435Z,23.50
2019-04-30T04:14:50.909Z,25.10
2019-04-30T04:17:20.497Z,24.57
2019-04-30T04:19:50.170Z,26.97
2019-04-30T04:22:20.787Z,28.05
2019-04-30T04:24:50.660Z,28.70
2019-04-30T04:27:19.760Z,30.27
2019-04-30T04:29:51.097Z,32.70
2019-04-30T04:32:23.632Z,38.30
2019-04-30T04:34:50.561Z,36.42
2019-04-30T04:37:20.345Z,40.67
2019-04-30T04:39:49.997Z,40.35
2019-04-30T04:42:19.729Z,39.08
2019-04-30T04:44:50.225Z,43.07
2019-04-30T04:47:20.033Z,43.00
2019-04-30T04:49:50.688Z,44.42
2019-04-30T04:52:21.528Z,45.98
2019-04-30T04:54:50.574Z,43.87
2019-04-30T04:57:22.625Z,44.37
2019-04-30T04:59:50.250Z,46.70
2019-04-30T05:02:32.686Z,46.53
2019-04-30T05:05:00.142Z,46.30
2019-04-30T05:07:28.809Z,48.28
2019-04-30T05:10:00.555Z,49.87
2019-04-30T05:12:29.597Z,54.20
2019-04-30T05:14:59.695Z,50.43
2019-04-30T05:17:29.671Z,53.70
2019-04-30T05:19:58.744Z,50.93
2019-04-30T05:22:29.404Z,60.33
2019-04-30T05:24:58.854Z,59.15
2019-04-30T05:27:27.723Z,56.13
2019-04-30T05:29:56.288Z,65.37
2019-04-30T05:32:24.759Z,62.50
2019-04-30T05:34:53.403Z,62.27
2019-04-30T05:37:22.534Z,63.38
2019-04-30T05:39:51.315Z,64.87
2019-04-30T05:42:20.124Z,67.70
2019-04-30T05:44:49.729Z,63.37
2019-04-30T05:47:19.539Z,66.50
2019-04-30T05:49:48.991Z,66.45
2019-04-30T05:52:19.733Z,61.13
2019-04-30T05:54:48.942Z,65.72
2019-04-30T05:57:19.535Z,69.57
2019-04-30T05:59:48.728Z,68.60
2019-04-30T06:02:19.295Z,68.10
2019-04-30T06:04:48.908Z,66.70
2019-04-30T06:07:18.997Z,65.95
2019-04-30T06:09:56.395Z,66.20
2019-04-30T06:12:42.824Z,62.77
2019-04-30T06:15:19.435Z,63.40
2019-04-30T06:18:00.758Z,63.47
2019-04-30T06:20:23.299Z,62.20
2019-04-30T06:22:52.434Z,61.48
2019-04-30T06:25:31.019Z,66.17
2019-04-30T06:27:52.061Z,64.13
2019-04-30T06:30:21.359Z,63.48
2019-04-30T06:32:49.960Z,64.97
2019-04-30T06:35:19.353Z,62.40
2019-04-30T06:37:48.909Z,61.10
2019-04-30T06:40:19.585Z,55.63
2019-04-30T06:42:49.543Z,62.08
2019-04-30T06:45:19.171Z,63.20
2019-04-30T06:47:48.987Z,61.77
2019-04-30T06:50:19.374Z,59.00
2019-04-30T06:52:56.270Z,55.73
2019-04-30T06:55:19.311Z,56.17
2019-04-30T06:57:49.695Z,54.50
2019-04-30T07:00:20.669Z,56.25
2019-04-30T07:02:49.524Z,58.87
2019-04-30T07:05:18.558Z,56.03
2019-04-30T07:08:09.391Z,58.38
2019-04-30T07:10:34.191Z,55.00
2019-04-30T07:13:04.369Z,52.50
2019-04-30T07:15:33.008Z,51.33
2019-04-30T07:18:02.240Z,51.10
2019-04-30T07:20:34.033Z,56.43
2019-04-30T07:23:03.254Z,52.13
2019-04-30T07:25:31.253Z,54.23
2019-04-30T07:27:59.951Z,55.20
2019-04-30T07:30:30.707Z,53.53
2019-04-30T07:32:59.707Z,58.10
2019-04-30T07:35:29.218Z,56.42
2019-04-30T07:38:00.654Z,54.40
2019-04-30T07:40:29.208Z,55.50
2019-04-30T07:42:59.116Z,50.77
2019-04-30T07:45:29.482Z,56.37
2019-04-30T07:47:59.413Z,55.87
2019-04-30T07:50:30.602Z,54.05
2019-04-30T07:53:05.237Z,52.20
2019-04-30T07:55:29.565Z,52.83
2019-04-30T07:57:59.121Z,57.00
2019-04-30T08:00:30.995Z,52.10
2019-04-30T08:03:00.184Z,53.63
2019-04-30T08:05:42.594Z,56.33
2019-04-30T08:08:21.071Z,55.10
2019-04-30T08:10:41.424Z,57.30
2019-04-30T08:13:14.380Z,59.70
2019-04-30T08:15:42.208Z,54.80
2019-04-30T08:18:10.359Z,50.55
2019-04-30T08:20:39.349Z,48.38
2019-04-30T08:23:20.334Z,50.10
2019-04-30T08:25:39.101Z,52.83
2019-04-30T08:28:09.137Z,50.27
2019-04-30T08:30:39.158Z,54.70
2019-04-30T08:33:09.396Z,52.37
2019-04-30T08:35:39.763Z,52.13
2019-04-30T08:38:10.569Z,47.90
2019-04-30T08:40:47.235Z,51.15
2019-04-30T08:43:09.574Z,49.58
2019-04-30T08:45:38.615Z,50.12
2019-04-30T08:48:08.994Z,47.80
2019-04-30T08:50:39.300Z,50.77
2019-04-30T08:53:07.855Z,44.60
2019-04-30T08:55:36.330Z,47.65
2019-04-30T08:58:10.084Z,48.73
2019-04-30T09:00:35.556Z,47.17
2019-04-30T09:03:04.120Z,49.95
2019-04-30T09:05:38.514Z,46.13
2019-04-30T09:08:09.622Z,42.90
2019-04-30T09:10:39.318Z,45.27
2019-04-30T09:13:09.152Z,45.17
2019-04-30T09:15:37.820Z,42.97
2019-04-30T09:18:10.286Z,40.03
2019-04-30T09:20:36.824Z,42.47
2019-04-30T09:23:05.635Z,41.43
2019-04-30T09:25:34.104Z,40.50
2019-04-30T09:28:04.456Z,42.27
2019-04-30T09:30:32.860Z,41.30
2019-04-30T09:33:02.340Z,42.97
2019-04-30T09:35:32.178Z,41.35
2019-04-30T09:38:01.990Z,39.15
2019-04-30T09:40:32.483Z,38.28
2019-04-30T09:43:00.803Z,38.85
2019-04-30T09:45:29.939Z,38.48
2019-04-30T09:47:59.210Z,38.97
2019-04-30T09:50:28.978Z,38.27
2019-04-30T09:52:59.844Z,37.83
2019-04-30T09:55:29.046Z,38.90
2019-04-30T09:57:58.849Z,41.42
2019-04-30T10:00:29.476Z,45.30
2019-04-30T10:02:59.931Z,44.10
2019-04-30T10:05:29.248Z,45.40
2019-04-30T10:07:59.380Z,41.98
2019-04-30T10:10:29.788Z,42.17
2019-04-30T10:12:59.233Z,45.83
2019-04-30T10:15:38.362Z,46.00
2019-04-30T10:18:07.391Z,44.33
2019-04-30T10:20:41.912Z,42.50
2019-04-30T10:23:10.682Z,39.67
2019-04-30T10:25:39.394Z,38.58
2019-04-30T10:28:09.979Z,39.73
2019-04-30T10:30:38.813Z,40.03
2019-04-30T10:33:09.801Z,42.50
2019-04-30T10:35:38.490Z,40.20
2019-04-30T10:38:09.659Z,40.40
2019-04-30T10:40:39.036Z,42.35
2019-04-30T10:43:08.869Z,39.60
2019-04-30T10:45:38.971Z,39.40
2019-04-30T10:48:07.728Z,41.50
2019-04-30T10:50:36.499Z,42.63
2019-04-30T10:53:05.063Z,40.63
2019-04-30T10:55:33.547Z,42.07
2019-04-30T10:58:02.079Z,44.23
2019-04-30T11:00:39.010Z,42.35
2019-04-30T11:03:19.521Z,43.43
2019-04-30T11:05:41.289Z,42.50
2019-04-30T11:08:09.751Z,39.08
2019-04-30T11:10:39.915Z,38.60
2019-04-30T11:13:08.674Z,36.50
2019-04-30T11:15:39.274Z,38.23
2019-04-30T11:18:07.616Z,37.10
2019-04-30T11:20:36.443Z,34.15
2019-04-30T11:23:14.305Z,36.15
2019-04-30T11:25:36.253Z,35.03
2019-04-30T11:28:06.144Z,33.80
2019-04-30T11:30:35.909Z,35.03
2019-04-30T11:33:04.776Z,31.37
2019-04-30T11:35:34.107Z,33.27
2019-04-30T11:38:03.053Z,32.90
2019-04-30T11:40:37.122Z,30.47
2019-04-30T11:43:02.891Z,30.02
2019-04-30T11:45:52.515Z,29.30
2019-04-30T11:48:21.144Z,30.08
2019-04-30T11:50:49.858Z,29.27
2019-04-30T11:53:25.398Z,29.20
2019-04-30T11:55:49.168Z,28.85
2019-04-30T11:58:21.802Z,26.70
2019-04-30T12:00:49.462Z,26.73
2019-04-30T12:03:19.138Z,25.70
2019-04-30T12:05:48.997Z,25.32
2019-04-30T12:08:19.700Z,22.87
2019-04-30T12:10:49.983Z,22.25
2019-04-30T12:13:25.690Z,22.77
2019-04-30T12:15:55.155Z,22.30
2019-04-30T12:18:23.948Z,22.33
2019-04-30T12:20:52.924Z,21.57
2019-04-30T12:23:21.587Z,21.30
2019-04-30T12:25:50.359Z,21.70
2019-04-30T12:28:19.616Z,21.17
2019-04-30T12:30:48.973Z,25.00
2019-04-30T12:33:19.132Z,24.43
2019-04-30T12:35:49.152Z,25.60
2019-04-30T12:38:19.122Z,24.02
2019-04-30T12:40:48.007Z,26.10
2019-04-30T12:43:16.567Z,24.02
2019-04-30T12:45:45.173Z,26.15
2019-04-30T12:48:20.148Z,23.50
2019-04-30T12:51:01.632Z,24.90
2019-04-30T12:53:37.747Z,23.10
2019-04-30T12:56:27.023Z,22.63
2019-04-30T12:58:53.931Z,22.60
2019-04-30T13:01:22.471Z,21.70
2019-04-30T13:03:58.324Z,21.43
2019-04-30T13:06:21.589Z,21.27
2019-04-30T13:08:52.465Z,25.55
2019-04-30T13:11:21.549Z,19.53
2019-04-30T13:13:51.382Z,19.30
2019-04-30T13:16:20.411Z,18.70
2019-04-30T13:18:49.373Z,19.30
2019-04-30T13:21:18.463Z,19.73
2019-04-30T13:23:47.070Z,19.27
2019-04-30T13:26:15.687Z,20.50
2019-04-30T13:28:54.808Z,19.80
2019-04-30T13:31:23.291Z,19.80
2019-04-30T13:34:09.532Z,20.53
2019-04-30T13:36:40.699Z,21.17
2019-04-30T13:39:15.580Z,20.90
2019-04-30T13:41:54.747Z,20.00
2019-04-30T13:44:29.409Z,20.95
2019-04-30T13:46:57.953Z,18.83
2019-04-30T13:49:30.046Z,18.02
2019-04-30T13:51:56.812Z,15.50
2019-04-30T13:54:25.310Z,17.67
2019-04-30T13:56:54.147Z,16.33
2019-04-30T13:59:22.691Z,18.43
2019-04-30T14:01:51.186Z,18.70
2019-04-30T14:04:37.404Z,18.20
2019-04-30T14:07:10.526Z,18.17
2019-04-30T14:09:39.267Z,18.03
2019-04-30T14:12:07.903Z,19.93
2019-04-30T14:14:36.441Z,20.50
2019-04-30T14:17:05.235Z,18.60
2019-04-30T14:19:33.856Z,18.13
2019-04-30T14:22:02.395Z,17.60
2019-04-30T14:24:30.890Z,18.90
2019-04-30T14:26:59.495Z,17.77
2019-04-30T14:29:30.024Z,17.12
2019-04-30T14:31:58.835Z,17.87
2019-04-30T14:34:28.585Z,16.95
2019-04-30T14:36:59.194Z,17.32
2019-04-30T14:39:29.146Z,18.83
2019-04-30T14:41:59.953Z,19.02
2019-04-30T14:44:31.685Z,17.00
2019-04-30T14:47:20.195Z,18.48
2019-04-30T14:50:02.633Z,17.20
2019-04-30T14:52:29.313Z,16.60
2019-04-30T14:55:02.231Z,17.10
2019-04-30T14:57:51.081Z,15.68
2019-04-30T15:00:38.814Z,16.70
2019-04-30T15:03:11.296Z,16.70
2019-04-30T15:05:48.451Z,16.10
2019-04-30T15:08:10.095Z,15.03
2019-04-30T15:10:38.719Z,17.37
2019-04-30T15:13:09.579Z,27.05
2019-04-30T15:15:39.200Z,18.90
2019-04-30T15:18:09.258Z,26.30
2019-04-30T15:20:39.838Z,17.55
2019-04-30T15:23:25.535Z,16.35
2019-04-30T15:25:54.298Z,20.92
2019-04-30T15:28:23.165Z,16.32
2019-04-30T15:30:52.427Z,15.77
2019-04-30T15:33:28.902Z,15.28
2019-04-30T15:35:59.790Z,16.40
2019-04-30T15:38:45.775Z,16.37
2019-04-30T15:41:14.784Z,15.68
2019-04-30T15:43:43.499Z,14.93
2019-04-30T15:46:12.371Z,14.98
2019-04-30T15:48:41.135Z,16.00
2019-04-30T15:51:09.960Z,15.10
2019-04-30T15:53:38.731Z,14.90
2019-04-30T15:56:08.537Z,14.53
2019-04-30T15:58:41.750Z,16.00
2019-04-30T16:01:13.118Z,15.83
2019-04-30T16:03:43.946Z,15.70
2019-04-30T16:06:12.733Z,15.13
2019-04-30T16:08:43.190Z,15.72
2019-04-30T16:11:13.668Z,16.47
2019-04-30T16:14:02.144Z,15.50
2019-04-30T16:16:32.534Z,15.30
2019-04-30T16:19:01.290Z,15.90
2019-04-30T16:21:30.084Z,15.70
2019-04-30T16:23:58.928Z,15.50
2019-04-30T16:26:29.107Z,15.67
2019-04-30T16:28:58.622Z,15.73
2019-04-30T16:31:29.158Z,15.60
2019-04-30T16:33:58.112Z,14.87
2019-04-30T16:36:29.018Z,14.87
2019-04-30T16:38:58.658Z,14.73
2019-04-30T16:41:31.667Z,15.10
2019-04-30T16:43:59.383Z,15.20
2019-04-30T16:46:29.476Z,14.27
2019-04-30T16:48:58.776Z,13.77
2019-04-30T16:51:28.879Z,13.85
2019-04-30T16:53:58.615Z,20.80
2019-04-30T16:56:28.648Z,14.58
2019-04-30T16:59:05.429Z,14.60
2019-04-30T17:01:35.694Z,15.65
2019-04-30T17:04:09.051Z,14.90
2019-04-30T17:06:39.741Z,14.50
2019-04-30T17:09:13.693Z,14.83
2019-04-30T17:12:00.362Z,14.53
2019-04-30T17:14:30.844Z,15.00
2019-04-30T17:16:59.806Z,14.00
2019-04-30T17:19:29.251Z,13.83
2019-04-30T17:21:58.477Z,13.40
2019-04-30T17:24:27.256Z,13.30
2019-04-30T17:26:56.134Z,14.80
2019-04-30T17:29:24.910Z,14.83
2019-04-30T17:31:53.709Z,15.17
2019-04-30T17:34:22.493Z,14.58
2019-04-30T17:36:51.336Z,14.53
2019-04-30T17:39:21.268Z,14.93
2019-04-30T17:41:50.488Z,14.80
2019-04-30T17:44:19.286Z,14.17
2019-04-30T17:46:49.739Z,14.47
2019-04-30T17:49:19.026Z,17.77
2019-04-30T17:51:49.116Z,15.60
2019-04-30T17:54:18.088Z,16.25
2019-04-30T17:56:47.138Z,20.27
2019-04-30T17:59:16.018Z,15.30
2019-04-30T18:01:49.992Z,15.28
2019-04-30T18:04:21.882Z,15.13
2019-04-30T18:06:50.643Z,14.60
2019-04-30T18:09:20.178Z,14.85
2019-04-30T18:11:49.582Z,15.80
2019-04-30T18:14:18.872Z,14.60
2019-04-30T18:16:48.681Z,15.10
2019-04-30T18:19:31.136Z,15.58
2019-04-30T18:22:04.331Z,15.15
2019-04-30T18:24:50.621Z,16.00
2019-04-30T18:27:42.661Z,19.00
2019-04-30T18:30:00.535Z,18.23
2019-04-30T18:32:29.718Z,19.23
2019-04-30T18:34:59.123Z,17.85
2019-04-30T18:37:28.727Z,20.23
2019-04-30T18:40:00.027Z,17.23
2019-04-30T18:42:29.061Z,17.62
2019-04-30T18:44:58.062Z,19.67
2019-04-30T18:47:27.200Z,17.73
2019-04-30T18:49:56.057Z,18.00
2019-04-30T18:52:24.906Z,21.27
2019-04-30T18:54:53.796Z,16.90
2019-04-30T18:57:22.685Z,17.52
2019-04-30T18:59:51.574Z,19.20
2019-04-30T19:02:20.520Z,17.32
2019-04-30T19:04:49.614Z,18.82
2019-04-30T19:07:20.159Z,19.77
2019-04-30T19:09:50.695Z,19.37
2019-04-30T19:12:29.065Z,23.15
2019-04-30T19:15:15.500Z,22.93
2019-04-30T19:18:02.067Z,22.35
2019-04-30T19:20:33.019Z,21.40
2019-04-30T19:23:01.975Z,26.23
2019-04-30T19:25:31.785Z,23.00
2019-04-30T19:28:11.634Z,23.60
2019-04-30T19:30:32.530Z,21.97
2019-04-30T19:33:01.495Z,23.10
2019-04-30T19:35:30.470Z,25.30
2019-04-30T19:37:59.301Z,26.10
2019-04-30T19:40:28.628Z,27.47
2019-04-30T19:42:57.917Z,25.20
2019-04-30T19:45:26.717Z,23.90
2019-04-30T19:47:55.517Z,25.92
2019-04-30T19:50:24.395Z,26.40
2019-04-30T19:52:53.316Z,27.35
2019-04-30T19:55:22.087Z,26.20
2019-04-30T19:57:51.084Z,26.20
2019-04-30T20:00:20.383Z,27.37
2019-04-30T20:02:49.240Z,31.00
2019-04-30T20:05:19.407Z,27.40
2019-04-30T20:07:49.347Z,29.45
2019-04-30T20:10:19.552Z,26.43
2019-04-30T20:12:49.744Z,26.17
2019-04-30T20:15:21.722Z,27.70
2019-04-30T20:17:49.903Z,27.13
2019-04-30T20:20:19.048Z,28.85
2019-04-30T20:22:47.905Z,28.80
2019-04-30T20:25:16.688Z,32.03
2019-04-30T20:27:45.496Z,29.57
2019-04-30T20:30:14.420Z,28.23
2019-04-30T20:32:43.201Z,31.45
2019-04-30T20:35:12.536Z,29.27
2019-04-30T20:37:59.493Z,28.45
2019-04-30T20:40:42.851Z,31.50
2019-04-30T20:43:00.396Z,31.70
2019-04-30T20:45:29.215Z,31.93
2019-04-30T20:47:59.217Z,31.02
2019-04-30T20:50:28.096Z,31.67
2019-04-30T20:52:58.776Z,30.95
2019-04-30T20:55:27.343Z,41.70
2019-04-30T20:57:56.136Z,80.97
2019-04-30T21:00:26.351Z,56.10
2019-04-30T21:02:55.641Z,39.33
2019-04-30T21:05:24.538Z,75.55
2019-04-30T21:07:53.439Z,74.77
2019-04-30T21:10:22.248Z,38.50
2019-04-30T21:12:51.329Z,36.33
2019-04-30T21:15:20.220Z,33.65
2019-04-30T21:17:50.507Z,37.87
2019-04-30T21:20:19.552Z,35.55
2019-04-30T21:22:49.419Z,35.00
2019-04-30T21:25:18.883Z,34.05
2019-04-30T21:27:49.889Z,34.67
2019-04-30T21:30:18.522Z,34.67
2019-04-30T21:33:05.321Z,32.30
2019-04-30T21:35:41.353Z,31.63
2019-04-30T21:38:10.247Z,33.80
2019-04-30T21:40:39.433Z,33.67
2019-04-30T21:43:08.449Z,32.90
2019-04-30T21:45:39.478Z,34.30
2019-04-30T21:48:09.141Z,35.68
2019-04-30T21:50:39.714Z,33.83
2019-04-30T21:53:09.912Z,39.42
2019-04-30T21:55:39.804Z,34.23
2019-04-30T21:58:09.538Z,34.20
2019-04-30T22:00:42.724Z,36.55
2019-04-30T22:03:11.285Z,36.40
2019-04-30T22:05:39.836Z,34.63
2019-04-30T22:08:09.096Z,36.63
2019-04-30T22:10:37.913Z,38.50
2019-04-30T22:13:08.744Z,34.50
2019-04-30T22:15:36.817Z,35.40
2019-04-30T22:18:05.521Z,36.73
2019-04-30T22:20:33.991Z,38.40
2019-04-30T22:23:02.484Z,37.00
2019-04-30T22:25:31.088Z,34.60
2019-04-30T22:27:59.579Z,32.73
2019-04-30T22:30:28.039Z,32.85
2019-04-30T22:32:59.330Z,30.88
2019-04-30T22:35:28.482Z,30.77
2019-04-30T22:38:04.368Z,33.45
2019-04-30T22:40:32.830Z,30.85
2019-04-30T22:43:01.323Z,31.53
2019-04-30T22:45:31.966Z,32.28
2019-04-30T22:48:00.473Z,35.80
2019-04-30T22:50:29.000Z,35.17
2019-04-30T22:52:57.639Z,35.40
2019-04-30T22:55:26.108Z,36.43
2019-04-30T22:57:54.613Z,33.27
2019-04-30T23:00:33.800Z,35.45
2019-04-30T23:03:03.936Z,35.10
2019-04-30T23:05:32.535Z,37.87
2019-04-30T23:08:01.178Z,35.78
2019-04-30T23:10:29.743Z,33.70
2019-04-30T23:12:58.288Z,36.93
2019-04-30T23:15:26.953Z,38.30
2019-04-30T23:17:55.559Z,33.33
2019-04-30T23:20:24.028Z,38.42
2019-04-30T23:22:52.657Z,35.20
2019-04-30T23:25:21.199Z,33.65
2019-04-30T23:27:49.707Z,39.67
2019-04-30T23:30:18.492Z,41.37
2019-04-30T23:32:47.023Z,38.25
2019-04-30T23:35:15.694Z,38.90
2019-04-30T23:37:44.224Z,39.75
2019-04-30T23:40:30.828Z,38.60
2019-04-30T23:42:59.364Z,40.98
2019-04-30T23:45:28.775Z,38.90
2019-04-30T23:47:57.403Z,38.17
2019-04-30T23:50:25.893Z,39.37
2019-04-30T23:52:54.522Z,38.13
2019-04-30T23:55:23.128Z,38.83
2019-04-30T23:57:51.590Z,39.05
